Time;durP1;ratioP1;P1;durP2;ratioP2;P2;SDS_P1;SDS_P2;PMS_P1;PMS_P2;Temp;Humidity;BMP_temperature;BMP_pressure;BME280_temperature;BME280_humidity;BME280_pressure;Samples;Min_cycle;Max_cycle;Signal;HPM_P1;HPM_P2
2021/06/15 00:01:37;;;;;;;;;;;15.10;71.20;;;;;;5020561;28;88412;-51
2021/06/15 00:04:03;;;;;;;;;;;15.20;71.20;;;;;;5018586;28;86834;-52
2021/06/15 00:06:28;;;;;;;;;;;15.10;71.10;;;;;;5019045;28;87642;-52
2021/06/15 00:08:54;;;;;;;;;;;15.10;71.30;;;;;;5020620;28;87143;-53
2021/06/15 00:11:19;;;;;;;;;;;15.10;71.30;;;;;;5021338;28;88096;-52
2021/06/15 00:13:45;;;;;;;;;;;15.10;71.30;;;;;;5021397;28;88114;-52
2021/06/15 00:16:10;;;;;;;;;;;15.10;71.30;;;;;;5021653;28;88618;-52
2021/06/15 00:18:36;;;;;;;;;;;15.10;71.90;;;;;;5018956;28;88860;-52
2021/06/15 00:21:02;;;;;;;;;;;15.10;71.40;;;;;;5020790;28;87416;-52
2021/06/15 00:23:27;;;;;;;;;;;15.10;71.50;;;;;;5019332;28;87177;-52
2021/06/15 00:25:53;;;;;;;;;;;15.10;71.40;;;;;;5019967;28;88511;-52
2021/06/15 00:28:19;;;;;;;;;;;15.00;71.40;;;;;;5022281;28;86440;-55
2021/06/15 00:30:45;;;;;;;;;;;15.10;71.40;;;;;;5021648;28;88231;-52
2021/06/15 00:33:11;;;;;;;;;;;15.00;71.40;;;;;;5021865;28;88170;-54
2021/06/15 00:35:36;;;;;;;;;;;15.00;71.50;;;;;;5019201;28;88940;-52
2021/06/15 00:38:03;;;;;;;;;;;15.00;71.40;;;;;;5017810;28;87612;-51
2021/06/15 00:40:28;;;;;;;;;;;15.00;71.60;;;;;;5017412;28;88206;-51
2021/06/15 00:42:54;;;;;;;;;;;15.00;71.60;;;;;;5022027;28;87142;-53
2021/06/15 00:45:24;;;;;;;;;;;15.00;71.50;;;;;;5018630;28;88104;-51
2021/06/15 00:47:50;;;;;;;;;;;15.00;71.60;;;;;;5020346;28;87247;-51
2021/06/15 00:50:16;;;;;;;;;;;15.00;71.70;;;;;;5021402;28;87377;-52
2021/06/15 00:52:42;;;;;;;;;;;14.90;71.60;;;;;;5021776;28;87302;-56
2021/06/15 00:55:08;;;;;;;;;;;14.90;71.60;;;;;;5021027;28;88811;-52
2021/06/15 00:57:33;;;;;;;;;;;15.00;71.60;;;;;;5018701;28;88270;-51
2021/06/15 00:59:59;;;;;;;;;;;15.00;71.70;;;;;;5016743;28;89045;-52
2021/06/15 01:02:26;;;;;;;;;;;14.90;71.60;;;;;;5018328;28;87144;-55
2021/06/15 01:04:51;;;;;;;;;;;14.90;71.70;;;;;;5020814;28;87182;-52
2021/06/15 01:07:27;;;;;;;;;;;14.90;71.70;;;;;;5018719;28;87170;-50
2021/06/15 01:10:06;;;;;;;;;;;14.90;71.70;;;;;;5020469;28;87478;-52
2021/06/15 01:12:40;;;;;;;;;;;14.90;71.70;;;;;;5016586;28;88446;-51
2021/06/15 01:15:21;;;;;;;;;;;14.90;71.80;;;;;;5019983;28;87153;-53
2021/06/15 01:17:47;;;;;;;;;;;14.80;71.70;;;;;;5021327;28;86694;-51
2021/06/15 01:20:17;;;;;;;;;;;14.80;71.70;;;;;;5019900;28;88596;-51
2021/06/15 01:22:43;;;;;;;;;;;14.80;71.80;;;;;;5016508;28;88993;-51
2021/06/15 01:25:22;;;;;;;;;;;14.80;71.80;;;;;;5016247;28;88110;-52
2021/06/15 01:27:58;;;;;;;;;;;14.80;71.80;;;;;;5022069;28;88739;-56
2021/06/15 01:30:29;;;;;;;;;;;14.80;71.80;;;;;;5019800;28;88081;-53
2021/06/15 01:32:56;;;;;;;;;;;14.80;71.90;;;;;;5020469;28;89666;-52
2021/06/15 01:35:23;;;;;;;;;;;14.80;71.80;;;;;;5019700;28;87192;-53
2021/06/15 01:37:52;;;;;;;;;;;14.80;71.80;;;;;;5019823;28;87231;-52
2021/06/15 01:40:21;;;;;;;;;;;14.80;71.80;;;;;;5018684;28;88360;-51
2021/06/15 01:42:48;;;;;;;;;;;14.80;71.80;;;;;;5019746;28;86464;-51
2021/06/15 01:45:16;;;;;;;;;;;14.70;71.80;;;;;;5018086;28;87128;-52
2021/06/15 01:47:45;;;;;;;;;;;14.80;71.90;;;;;;5015660;28;90134;-51
2021/06/15 01:50:12;;;;;;;;;;;14.80;71.90;;;;;;5020168;28;88060;-54
2021/06/15 01:52:38;;;;;;;;;;;14.70;71.80;;;;;;5016814;28;88185;-54
2021/06/15 01:55:05;;;;;;;;;;;14.70;71.80;;;;;;5017297;28;87274;-52
2021/06/15 01:57:32;;;;;;;;;;;14.70;72.30;;;;;;5015887;28;87254;-52
2021/06/15 01:59:58;;;;;;;;;;;14.70;71.80;;;;;;5016254;28;87987;-53
2021/06/15 02:02:25;;;;;;;;;;;14.70;71.60;;;;;;5016379;28;87219;-52
2021/06/15 02:04:51;;;;;;;;;;;14.70;71.70;;;;;;5016021;28;87671;-52
2021/06/15 02:07:20;;;;;;;;;;;14.70;71.50;;;;;;5020786;28;88141;-54
2021/06/15 02:09:49;;;;;;;;;;;14.70;71.70;;;;;;5019647;28;87173;-52
2021/06/15 02:12:16;;;;;;;;;;;14.70;71.70;;;;;;5019178;28;89397;-54
2021/06/15 02:14:43;;;;;;;;;;;14.70;71.50;;;;;;5017816;28;88108;-52
2021/06/15 02:17:10;;;;;;;;;;;14.60;71.60;;;;;;5018531;28;88268;-51
2021/06/15 02:19:36;;;;;;;;;;;14.60;71.60;;;;;;5016101;28;88247;-52
2021/06/15 02:22:07;;;;;;;;;;;14.60;71.60;;;;;;5016806;28;87160;-52
2021/06/15 02:24:39;;;;;;;;;;;14.60;71.60;;;;;;5017550;28;87139;-51
2021/06/15 02:27:06;;;;;;;;;;;14.60;71.50;;;;;;5015525;28;90198;-51
2021/06/15 02:29:31;;;;;;;;;;;14.60;71.60;;;;;;5015892;28;87240;-53
2021/06/15 02:31:59;;;;;;;;;;;14.60;71.70;;;;;;5020170;28;89059;-51
2021/06/15 02:34:26;;;;;;;;;;;14.60;71.70;;;;;;5016893;28;88382;-53
2021/06/15 02:36:52;;;;;;;;;;;14.60;72.30;;;;;;5016985;28;88889;-55
2021/06/15 02:39:20;;;;;;;;;;;14.50;71.70;;;;;;5014548;28;91734;-53
2021/06/15 02:41:46;;;;;;;;;;;14.50;71.70;;;;;;5019617;28;87205;-54
2021/06/15 02:44:18;;;;;;;;;;;14.50;71.70;;;;;;5020367;28;88058;-53
2021/06/15 02:46:45;;;;;;;;;;;14.50;71.70;;;;;;5018990;28;89187;-55
2021/06/15 02:49:16;;;;;;;;;;;14.50;71.70;;;;;;5019112;28;87162;-51
2021/06/15 02:51:50;;;;;;;;;;;14.50;71.80;;;;;;5019539;28;87119;-53
2021/06/15 02:54:18;;;;;;;;;;;14.40;71.70;;;;;;5018425;28;87747;-52
2021/06/15 02:56:47;;;;;;;;;;;14.50;71.70;;;;;;5020447;28;87600;-53
2021/06/15 02:59:13;;;;;;;;;;;14.50;71.70;;;;;;5017224;28;87643;-50
2021/06/15 03:01:38;;;;;;;;;;;14.40;71.60;;;;;;5018450;28;87239;-52
2021/06/15 03:04:04;;;;;;;;;;;14.40;71.70;;;;;;5018920;28;89450;-52
2021/06/15 03:06:30;;;;;;;;;;;14.40;71.70;;;;;;5018220;28;88835;-53
2021/06/15 03:08:55;;;;;;;;;;;14.40;71.80;;;;;;5018181;28;88783;-52
2021/06/15 03:11:22;;;;;;;;;;;14.40;71.70;;;;;;5023556;28;87615;-55
2021/06/15 03:13:49;;;;;;;;;;;14.40;71.70;;;;;;5022785;28;89452;-56
2021/06/15 03:16:17;;;;;;;;;;;14.40;71.70;;;;;;5025080;28;87200;-52
2021/06/15 03:18:48;;;;;;;;;;;14.40;71.90;;;;;;5020622;28;89702;-55
2021/06/15 03:21:17;;;;;;;;;;;14.40;71.80;;;;;;5019583;28;86411;-53
2021/06/15 03:23:45;;;;;;;;;;;14.40;71.80;;;;;;5021078;28;87178;-51
2021/06/15 03:26:17;;;;;;;;;;;14.40;71.80;;;;;;5022792;28;88311;-51
2021/06/15 03:28:47;;;;;;;;;;;14.40;71.70;;;;;;5021643;28;88208;-50
2021/06/15 03:31:14;;;;;;;;;;;14.30;71.70;;;;;;5019234;28;87919;-52
2021/06/15 03:33:41;;;;;;;;;;;14.30;71.80;;;;;;5019806;28;89382;-52
2021/06/15 03:36:10;;;;;;;;;;;14.30;71.60;;;;;;5022084;28;87162;-52
2021/06/15 03:38:36;;;;;;;;;;;14.30;71.70;;;;;;5022596;28;87993;-53
2021/06/15 03:41:02;;;;;;;;;;;14.30;71.80;;;;;;5019070;28;87780;-51
2021/06/15 03:43:32;;;;;;;;;;;14.30;71.80;;;;;;5018253;28;88439;-53
2021/06/15 03:46:02;;;;;;;;;;;14.30;71.80;;;;;;5021013;28;88512;-52
2021/06/15 03:48:28;;;;;;;;;;;14.30;71.90;;;;;;5021566;28;87262;-53
2021/06/15 03:50:56;;;;;;;;;;;14.30;72.00;;;;;;5022162;28;88725;-51
2021/06/15 03:53:28;;;;;;;;;;;14.30;72.00;;;;;;5019442;28;88673;-55
2021/06/15 03:55:54;;;;;;;;;;;14.30;71.90;;;;;;5019613;28;87169;-55
2021/06/15 03:58:20;;;;;;;;;;;14.30;71.90;;;;;;5020040;28;88630;-54
2021/06/15 04:00:48;;;;;;;;;;;14.20;71.80;;;;;;5023060;28;88129;-53
2021/06/15 04:03:15;;;;;;;;;;;14.30;71.90;;;;;;5018479;28;89400;-51
2021/06/15 04:05:41;;;;;;;;;;;14.20;72.00;;;;;;5018054;28;89480;-52
2021/06/15 04:08:07;;;;;;;;;;;14.20;71.90;;;;;;5018702;28;87141;-52
2021/06/15 04:10:33;;;;;;;;;;;14.20;72.00;;;;;;5018299;28;89872;-52
2021/06/15 04:13:02;;;;;;;;;;;14.20;72.00;;;;;;5017851;28;89540;-51
2021/06/15 04:15:28;;;;;;;;;;;14.20;72.00;;;;;;5021721;28;87133;-52
2021/06/15 04:17:57;;;;;;;;;;;14.20;72.10;;;;;;5022008;28;88990;-54
2021/06/15 04:20:26;;;;;;;;;;;14.20;72.00;;;;;;5021279;28;89502;-53
2021/06/15 04:22:53;;;;;;;;;;;14.20;72.10;;;;;;5021495;28;88872;-54
2021/06/15 04:25:20;;;;;;;;;;;14.20;72.10;;;;;;5020639;28;88106;-51
2021/06/15 04:27:46;;;;;;;;;;;14.20;72.00;;;;;;5018343;28;87271;-52
2021/06/15 04:30:13;;;;;;;;;;;14.20;72.20;;;;;;5020178;28;88529;-51
2021/06/15 04:32:59;;;;;;;;;;;14.10;72.20;;;;;;5021582;28;89577;-51
2021/06/15 04:35:24;;;;;;;;;;;14.10;72.20;;;;;;5019574;28;88046;-52
2021/06/15 04:37:51;;;;;;;;;;;14.10;72.20;;;;;;5017901;28;87162;-51
2021/06/15 04:40:26;;;;;;;;;;;14.10;72.10;;;;;;5017274;28;87678;-52
2021/06/15 04:42:52;;;;;;;;;;;14.10;72.10;;;;;;5021115;28;88090;-52
2021/06/15 04:45:28;;;;;;;;;;;14.10;72.30;;;;;;5019877;28;87660;-51
2021/06/15 04:48:04;;;;;;;;;;;14.10;72.20;;;;;;5020604;28;87146;-55
2021/06/15 04:50:30;;;;;;;;;;;14.10;72.20;;;;;;5021276;28;88745;-53
2021/06/15 04:52:57;;;;;;;;;;;14.10;72.50;;;;;;5020607;28;87717;-51
2021/06/15 04:55:26;;;;;;;;;;;14.10;72.30;;;;;;5019492;28;87171;-52
2021/06/15 04:57:52;;;;;;;;;;;14.10;72.20;;;;;;5018300;28;88887;-53
2021/06/15 05:00:20;;;;;;;;;;;14.10;72.50;;;;;;5017400;28;88822;-52
2021/06/15 05:02:46;;;;;;;;;;;14.10;72.50;;;;;;5021299;28;87221;-55
2021/06/15 05:05:11;;;;;;;;;;;14.10;72.60;;;;;;5022577;28;88666;-51
2021/06/15 05:07:39;;;;;;;;;;;14.10;72.60;;;;;;5016443;28;89021;-53
2021/06/15 05:10:05;;;;;;;;;;;14.00;72.70;;;;;;5020074;28;90299;-52
2021/06/15 05:12:34;;;;;;;;;;;14.10;72.80;;;;;;5020302;28;88292;-52
2021/06/15 05:15:02;;;;;;;;;;;14.10;72.80;;;;;;5018118;28;87163;-55
2021/06/15 05:17:29;;;;;;;;;;;14.10;72.90;;;;;;5020675;28;88005;-53
2021/06/15 05:19:54;;;;;;;;;;;14.10;72.90;;;;;;5020214;28;88025;-50
2021/06/15 05:22:22;;;;;;;;;;;14.00;72.80;;;;;;5017099;28;87366;-53
2021/06/15 05:24:49;;;;;;;;;;;14.00;72.80;;;;;;5021259;28;87965;-51
2021/06/15 05:27:23;;;;;;;;;;;14.00;72.90;;;;;;5022144;28;89179;-51
2021/06/15 05:29:48;;;;;;;;;;;14.10;72.90;;;;;;5018645;28;90188;-53
2021/06/15 05:32:14;;;;;;;;;;;14.10;72.90;;;;;;5017050;28;90243;-52
2021/06/15 05:34:40;;;;;;;;;;;14.00;72.90;;;;;;5017106;28;87146;-51
2021/06/15 05:37:06;;;;;;;;;;;14.10;73.00;;;;;;5017385;28;87340;-51
2021/06/15 05:39:32;;;;;;;;;;;14.10;72.90;;;;;;5016480;28;87694;-52
2021/06/15 05:41:57;;;;;;;;;;;14.10;73.00;;;;;;5017267;28;87137;-53
2021/06/15 05:44:23;;;;;;;;;;;14.10;73.10;;;;;;5016868;28;87189;-51
2021/06/15 05:46:48;;;;;;;;;;;14.00;73.00;;;;;;5015848;28;88670;-51
2021/06/15 05:49:14;;;;;;;;;;;14.10;73.10;;;;;;5020403;28;86436;-54
2021/06/15 05:51:39;;;;;;;;;;;14.10;73.10;;;;;;5017215;28;87812;-55
2021/06/15 05:54:05;;;;;;;;;;;14.10;73.20;;;;;;5016598;28;87114;-52
2021/06/15 05:56:31;;;;;;;;;;;14.10;73.30;;;;;;5016847;28;89386;-52
2021/06/15 05:58:57;;;;;;;;;;;14.10;73.30;;;;;;5019710;28;87943;-54
2021/06/15 06:01:22;;;;;;;;;;;14.10;73.30;;;;;;5016457;28;88439;-53
2021/06/15 06:04:11;;;;;;;;;;;14.00;73.30;;;;;;5017123;28;87357;-53
2021/06/15 06:09:34;;;;;;;;;;;14.00;73.30;;;;;;4997178;28;87322;-53
2021/06/15 06:12:00;;;;;;;;;;;14.10;73.30;;;;;;5016946;28;88695;-54
2021/06/15 06:14:25;;;;;;;;;;;14.00;73.30;;;;;;5020886;28;86410;-54
2021/06/15 06:16:51;;;;;;;;;;;14.00;73.30;;;;;;5019087;28;88644;-55
2021/06/15 06:19:17;;;;;;;;;;;14.00;73.40;;;;;;5020681;28;88093;-52
2021/06/15 06:21:43;;;;;;;;;;;14.00;73.40;;;;;;5019308;28;88225;-51
2021/06/15 06:24:10;;;;;;;;;;;14.10;73.50;;;;;;5018135;28;89374;-54
2021/06/15 06:26:36;;;;;;;;;;;14.10;73.50;;;;;;5015528;28;89349;-50
2021/06/15 06:29:01;;;;;;;;;;;14.00;73.50;;;;;;5015627;28;87137;-51
2021/06/15 06:31:27;;;;;;;;;;;14.00;73.50;;;;;;5019150;28;88054;-50
2021/06/15 06:33:52;;;;;;;;;;;14.00;73.50;;;;;;5019628;28;88072;-53
2021/06/15 06:36:18;;;;;;;;;;;14.00;73.50;;;;;;5019243;28;87980;-51
2021/06/15 06:38:52;;;;;;;;;;;14.00;73.60;;;;;;5015908;28;88734;-53
2021/06/15 06:41:18;;;;;;;;;;;14.00;73.50;;;;;;5018955;28;87160;-53
2021/06/15 06:43:43;;;;;;;;;;;14.00;73.50;;;;;;5019332;28;87169;-51
2021/06/15 06:46:09;;;;;;;;;;;14.00;73.50;;;;;;5021824;28;90407;-51
2021/06/15 06:48:34;;;;;;;;;;;14.10;73.50;;;;;;5022959;28;91379;-51
2021/06/15 06:51:00;;;;;;;;;;;14.00;73.50;;;;;;5023645;28;88554;-51
2021/06/15 06:53:25;;;;;;;;;;;14.00;73.30;;;;;;5022733;28;88543;-51
2021/06/15 06:55:51;;;;;;;;;;;14.00;73.50;;;;;;5019785;28;88882;-51
2021/06/15 06:58:16;;;;;;;;;;;14.10;73.40;;;;;;5020647;28;87617;-52
2021/06/15 07:00:42;;;;;;;;;;;14.10;73.50;;;;;;5022034;28;87121;-51
2021/06/15 07:03:07;;;;;;;;;;;14.10;73.50;;;;;;5022895;28;87792;-54
2021/06/15 07:05:33;;;;;;;;;;;14.00;73.50;;;;;;5021721;28;88400;-52
2021/06/15 07:07:59;;;;;;;;;;;14.00;73.50;;;;;;5023183;28;87123;-52
2021/06/15 07:10:24;;;;;;;;;;;14.10;73.60;;;;;;5021402;28;88383;-51
2021/06/15 07:12:50;;;;;;;;;;;14.10;73.70;;;;;;5018417;28;90950;-52
2021/06/15 07:15:16;;;;;;;;;;;14.10;73.70;;;;;;5022183;28;87122;-52
2021/06/15 07:17:41;;;;;;;;;;;14.10;73.70;;;;;;5019248;28;89678;-51
2021/06/15 07:20:07;;;;;;;;;;;14.00;73.70;;;;;;5018630;28;87159;-51
2021/06/15 07:22:33;;;;;;;;;;;14.10;73.70;;;;;;5020400;28;88883;-52
2021/06/15 07:24:58;;;;;;;;;;;14.10;73.80;;;;;;5021323;28;88204;-51
2021/06/15 07:27:24;;;;;;;;;;;14.10;73.70;;;;;;5023296;28;86377;-52
2021/06/15 07:29:50;;;;;;;;;;;14.10;73.70;;;;;;5021164;28;87403;-52
2021/06/15 07:32:15;;;;;;;;;;;14.10;73.60;;;;;;5018133;28;87550;-51
2021/06/15 07:34:41;;;;;;;;;;;14.10;73.80;;;;;;5019087;28;88099;-51
2021/06/15 07:37:07;;;;;;;;;;;14.10;73.90;;;;;;5022297;28;89439;-51
2021/06/15 07:39:33;;;;;;;;;;;14.10;73.80;;;;;;5018936;28;87128;-52
2021/06/15 07:41:58;;;;;;;;;;;14.10;73.90;;;;;;5018829;28;88930;-53
2021/06/15 07:44:24;;;;;;;;;;;14.10;73.80;;;;;;5018416;28;90750;-51
2021/06/15 07:46:50;;;;;;;;;;;14.10;73.80;;;;;;5019829;28;87132;-53
2021/06/15 07:49:15;;;;;;;;;;;14.10;73.90;;;;;;5020970;28;88954;-52
2021/06/15 07:51:41;;;;;;;;;;;14.10;74.00;;;;;;5022352;28;86845;-52
2021/06/15 07:54:06;;;;;;;;;;;14.10;74.00;;;;;;5022170;28;87399;-52
2021/06/15 07:56:32;;;;;;;;;;;14.10;73.90;;;;;;5018097;28;88106;-53
2021/06/15 07:58:58;;;;;;;;;;;14.10;74.00;;;;;;5020611;28;88588;-51
2021/06/15 08:01:23;;;;;;;;;;;14.10;73.90;;;;;;5019761;28;89723;-52
2021/06/15 08:03:49;;;;;;;;;;;14.10;73.90;;;;;;5020477;28;88111;-51
2021/06/15 08:06:14;;;;;;;;;;;14.10;74.00;;;;;;5022133;28;87143;-52
2021/06/15 08:08:40;;;;;;;;;;;14.10;74.00;;;;;;5021416;28;88453;-52
2021/06/15 08:11:05;;;;;;;;;;;14.10;74.00;;;;;;5018213;28;88174;-52
2021/06/15 08:13:31;;;;;;;;;;;14.10;74.10;;;;;;5018752;28;87133;-51
2021/06/15 08:15:57;;;;;;;;;;;14.10;74.10;;;;;;5019001;28;87627;-52
2021/06/15 08:18:24;;;;;;;;;;;14.20;74.20;;;;;;5018665;28;89464;-53
2021/06/15 08:20:51;;;;;;;;;;;14.20;74.20;;;;;;5021587;28;87142;-53
2021/06/15 08:23:17;;;;;;;;;;;14.10;74.00;;;;;;5016812;28;90930;-52
2021/06/15 08:25:44;;;;;;;;;;;14.20;74.10;;;;;;5018367;28;87135;-52
2021/06/15 08:28:10;;;;;;;;;;;14.20;74.20;;;;;;5017716;28;88365;-50
2021/06/15 08:30:35;;;;;;;;;;;14.20;74.30;;;;;;5017909;28;89795;-52
2021/06/15 08:33:01;;;;;;;;;;;14.20;74.30;;;;;;5019221;28;87130;-52
2021/06/15 08:35:27;;;;;;;;;;;14.20;74.30;;;;;;5020495;28;87079;-53
2021/06/15 08:37:52;;;;;;;;;;;14.20;74.40;;;;;;5021043;28;88911;-52
2021/06/15 08:40:18;;;;;;;;;;;14.20;74.40;;;;;;5024450;28;87979;-52
2021/06/15 08:42:44;;;;;;;;;;;14.20;74.40;;;;;;5017589;28;88729;-53
2021/06/15 08:45:11;;;;;;;;;;;14.20;74.40;;;;;;5017867;28;87156;-52
2021/06/15 08:47:37;;;;;;;;;;;14.20;74.30;;;;;;5017159;28;89184;-51
2021/06/15 08:50:03;;;;;;;;;;;14.20;74.50;;;;;;5017644;28;89920;-52
2021/06/15 08:52:28;;;;;;;;;;;14.20;74.40;;;;;;5017719;28;87122;-51
2021/06/15 08:54:54;;;;;;;;;;;14.20;74.50;;;;;;5018907;28;87501;-52
2021/06/15 08:57:21;;;;;;;;;;;14.20;74.40;;;;;;5019023;28;89111;-50
2021/06/15 08:59:47;;;;;;;;;;;14.20;74.40;;;;;;5018970;28;87132;-52
2021/06/15 09:02:13;;;;;;;;;;;14.30;74.60;;;;;;5022686;28;87536;-52
2021/06/15 09:04:38;;;;;;;;;;;14.20;74.50;;;;;;5021456;28;86534;-52
2021/06/15 09:07:04;;;;;;;;;;;14.30;74.70;;;;;;5020686;28;88782;-51
2021/06/15 09:09:37;;;;;;;;;;;14.30;74.60;;;;;;5018070;28;88090;-52
2021/06/15 09:12:03;;;;;;;;;;;14.30;74.50;;;;;;5019640;28;88119;-52
2021/06/15 09:14:47;;;;;;;;;;;14.30;74.40;;;;;;5020972;28;90195;-52
2021/06/15 09:17:14;;;;;;;;;;;14.30;74.40;;;;;;5017954;28;89619;-51
2021/06/15 09:19:41;;;;;;;;;;;14.30;74.30;;;;;;5017385;28;87151;-51
2021/06/15 09:22:07;;;;;;;;;;;14.30;74.40;;;;;;5016881;28;87234;-52
2021/06/15 09:24:43;;;;;;;;;;;14.40;74.30;;;;;;5019960;28;88106;-52
2021/06/15 09:27:08;;;;;;;;;;;14.40;74.20;;;;;;5018411;28;87287;-51
2021/06/15 09:29:34;;;;;;;;;;;14.40;74.00;;;;;;5019358;28;88803;-51
2021/06/15 09:31:59;;;;;;;;;;;14.50;74.00;;;;;;5020615;28;87141;-51
2021/06/15 09:34:25;;;;;;;;;;;14.50;74.00;;;;;;5020698;28;88638;-51
2021/06/15 09:36:52;;;;;;;;;;;14.50;74.00;;;;;;5016419;28;88930;-51
2021/06/15 09:39:17;;;;;;;;;;;14.50;73.90;;;;;;5019194;28;88924;-52
2021/06/15 09:41:44;;;;;;;;;;;14.50;73.80;;;;;;5016618;28;87165;-52
2021/06/15 09:44:20;;;;;;;;;;;14.50;74.00;;;;;;5015908;28;87600;-51
2021/06/15 09:46:49;;;;;;;;;;;14.50;74.00;;;;;;5023905;28;87944;-53
2021/06/15 09:49:31;;;;;;;;;;;14.60;74.20;;;;;;5017450;28;88329;-52
2021/06/15 09:52:12;;;;;;;;;;;14.60;74.20;;;;;;5020036;28;87141;-51
2021/06/15 09:54:39;;;;;;;;;;;14.50;74.30;;;;;;5021347;28;89207;-53
2021/06/15 09:57:05;;;;;;;;;;;14.50;74.40;;;;;;5019178;28;88640;-52
2021/06/15 09:59:30;;;;;;;;;;;14.50;74.40;;;;;;5019727;28;87259;-51
2021/06/15 10:01:56;;;;;;;;;;;14.60;74.40;;;;;;5020390;28;88091;-51
2021/06/15 10:04:23;;;;;;;;;;;14.50;74.40;;;;;;5017486;28;89713;-51
2021/06/15 10:06:48;;;;;;;;;;;14.60;74.40;;;;;;5020833;28;87220;-52
2021/06/15 10:09:24;;;;;;;;;;;14.60;74.30;;;;;;5021674;28;89132;-53
2021/06/15 10:11:53;;;;;;;;;;;14.60;74.30;;;;;;5017777;28;87865;-52
2021/06/15 10:14:20;;;;;;;;;;;14.70;74.20;;;;;;5016707;28;87433;-54
2021/06/15 10:16:46;;;;;;;;;;;14.70;74.20;;;;;;5015908;28;89478;-51
2021/06/15 10:19:11;;;;;;;;;;;14.70;74.10;;;;;;5017244;28;86509;-51
2021/06/15 10:21:37;;;;;;;;;;;14.70;74.10;;;;;;5018512;28;87816;-51
2021/06/15 10:24:04;;;;;;;;;;;14.70;74.20;;;;;;5019316;28;89229;-52
2021/06/15 10:26:31;;;;;;;;;;;14.70;74.00;;;;;;5017537;28;88109;-50
2021/06/15 10:28:56;;;;;;;;;;;14.70;74.00;;;;;;5021172;28;89836;-52
2021/06/15 10:31:26;;;;;;;;;;;14.70;74.10;;;;;;5019722;28;87193;-50
2021/06/15 10:33:52;;;;;;;;;;;14.80;74.00;;;;;;5017771;28;88759;-54
2021/06/15 10:36:34;;;;;;;;;;;14.80;74.00;;;;;;5017491;28;88678;-52
2021/06/15 10:39:00;;;;;;;;;;;14.80;74.10;;;;;;5020360;28;87177;-52
2021/06/15 10:41:26;;;;;;;;;;;14.80;74.10;;;;;;5018761;28;87219;-52
2021/06/15 10:43:56;;;;;;;;;;;14.80;74.00;;;;;;5015843;28;88495;-51
2021/06/15 10:46:21;;;;;;;;;;;14.80;74.00;;;;;;5016943;28;87161;-52
2021/06/15 10:48:54;;;;;;;;;;;14.80;73.80;;;;;;5017012;28;89012;-51
2021/06/15 10:51:22;;;;;;;;;;;14.80;73.40;;;;;;5018579;28;90557;-52
2021/06/15 10:53:48;;;;;;;;;;;14.90;73.50;;;;;;5019331;28;89808;-51
2021/06/15 10:56:15;;;;;;;;;;;14.90;73.30;;;;;;5017318;28;87964;-52
2021/06/15 10:58:44;;;;;;;;;;;14.90;73.40;;;;;;5019683;28;88672;-54
2021/06/15 11:01:20;;;;;;;;;;;14.90;73.50;;;;;;5016107;28;88837;-51
2021/06/15 11:03:51;;;;;;;;;;;14.90;73.20;;;;;;5015946;28;89350;-52
2021/06/15 11:06:18;;;;;;;;;;;15.00;73.00;;;;;;5016263;28;87159;-51
2021/06/15 11:08:43;;;;;;;;;;;15.00;72.90;;;;;;5016573;28;88819;-53
2021/06/15 11:11:15;;;;;;;;;;;15.00;73.10;;;;;;5015777;28;88478;-52
2021/06/15 11:13:47;;;;;;;;;;;15.00;72.90;;;;;;5018628;28;87200;-50
2021/06/15 11:16:19;;;;;;;;;;;15.10;73.10;;;;;;5017178;28;90196;-51
2021/06/15 11:18:44;;;;;;;;;;;15.10;73.10;;;;;;5019885;28;87182;-53
2021/06/15 11:21:26;;;;;;;;;;;15.10;73.20;;;;;;5018246;28;88511;-52
2021/06/15 11:24:12;;;;;;;;;;;15.10;72.90;;;;;;5019033;28;87666;-54
2021/06/15 11:26:37;;;;;;;;;;;15.10;73.30;;;;;;5019588;28;87238;-53
2021/06/15 11:29:03;;;;;;;;;;;15.10;73.00;;;;;;5017670;28;88855;-51
2021/06/15 11:31:29;;;;;;;;;;;15.20;73.10;;;;;;5017548;28;87894;-50
2021/06/15 11:34:00;;;;;;;;;;;15.20;73.30;;;;;;5019361;28;86381;-52
2021/06/15 11:36:36;;;;;;;;;;;15.10;73.40;;;;;;5021697;28;88197;-53
2021/06/15 11:39:20;;;;;;;;;;;15.20;73.40;;;;;;5020912;28;87114;-53
2021/06/15 11:42:04;;;;;;;;;;;15.20;73.50;;;;;;5021916;28;89767;-53
2021/06/15 11:44:57;;;;;;;;;;;15.20;73.50;;;;;;5019113;28;88284;-51
2021/06/15 11:47:23;;;;;;;;;;;15.20;73.60;;;;;;5019400;28;88124;-54
2021/06/15 11:50:09;;;;;;;;;;;15.20;73.60;;;;;;5019860;28;88028;-52
2021/06/15 11:52:36;;;;;;;;;;;15.20;73.40;;;;;;5007472;28;88992;-55
2021/06/15 11:55:02;;;;;;;;;;;15.20;73.30;;;;;;5018150;28;87178;-52
2021/06/15 11:57:27;;;;;;;;;;;15.20;73.40;;;;;;5018758;28;88672;-53
2021/06/15 11:59:53;;;;;;;;;;;15.30;73.40;;;;;;5022682;28;87702;-51
2021/06/15 12:02:20;;;;;;;;;;;15.30;73.40;;;;;;5020820;28;87170;-52
2021/06/15 12:05:18;;;;;;;;;;;15.20;73.40;;;;;;5020288;28;89635;-52
2021/06/15 12:07:51;;;;;;;;;;;15.30;73.50;;;;;;4984575;28;88255;-52
2021/06/15 12:10:16;;;;;;;;;;;15.30;73.70;;;;;;5020238;28;89712;-51
2021/06/15 12:12:54;;;;;;;;;;;15.30;73.50;;;;;;5017763;28;87732;-52
2021/06/15 12:15:42;;;;;;;;;;;15.30;73.40;;;;;;5020946;28;88819;-51
2021/06/15 12:18:31;;;;;;;;;;;15.30;74.00;;;;;;5012448;28;87194;-54
2021/06/15 12:20:59;;;;;;;;;;;15.30;73.30;;;;;;5008967;28;89547;-52
2021/06/15 12:23:24;;;;;;;;;;;15.30;73.40;;;;;;5023833;28;88119;-51
2021/06/15 12:25:50;;;;;;;;;;;15.40;73.30;;;;;;5018175;28;87992;-52
2021/06/15 12:28:17;;;;;;;;;;;15.40;73.10;;;;;;5018187;28;87163;-51
2021/06/15 12:30:44;;;;;;;;;;;15.40;73.00;;;;;;5017771;28;87437;-52
2021/06/15 12:33:13;;;;;;;;;;;15.40;73.10;;;;;;5017085;28;90175;-52
2021/06/15 12:35:38;;;;;;;;;;;15.50;73.20;;;;;;5020294;28;87199;-53
2021/06/15 12:38:08;;;;;;;;;;;15.50;73.20;;;;;;5021682;28;87393;-53
2021/06/15 12:40:34;;;;;;;;;;;15.50;73.20;;;;;;5018381;28;89500;-52
2021/06/15 12:43:00;;;;;;;;;;;15.50;73.30;;;;;;5021363;28;87604;-52
2021/06/15 12:45:32;;;;;;;;;;;15.60;73.30;;;;;;5017322;28;89391;-52
2021/06/15 12:47:58;;;;;;;;;;;15.60;73.20;;;;;;5019244;28;88806;-51
2021/06/15 12:50:24;;;;;;;;;;;15.60;73.10;;;;;;5018097;28;88580;-51
2021/06/15 12:52:50;;;;;;;;;;;15.60;73.00;;;;;;5017425;28;87628;-52
2021/06/15 12:55:17;;;;;;;;;;;15.60;73.40;;;;;;5018175;28;87139;-51
2021/06/15 12:57:58;;;;;;;;;;;15.60;73.00;;;;;;5016263;28;89089;-51
2021/06/15 13:00:24;;;;;;;;;;;15.70;73.10;;;;;;5018375;28;89667;-54
2021/06/15 13:02:49;;;;;;;;;;;15.70;73.70;;;;;;5017350;28;87197;-51
2021/06/15 13:05:16;;;;;;;;;;;15.70;72.70;;;;;;5021228;28;87399;-52
2021/06/15 13:07:53;;;;;;;;;;;15.70;73.20;;;;;;5017755;28;87162;-53
2021/06/15 13:10:19;;;;;;;;;;;15.70;73.20;;;;;;5017727;28;87669;-50
2021/06/15 13:12:49;;;;;;;;;;;15.70;73.00;;;;;;5017468;28;89460;-51
2021/06/15 13:15:16;;;;;;;;;;;15.70;73.10;;;;;;5020394;28;86528;-52
2021/06/15 13:17:42;;;;;;;;;;;15.70;73.30;;;;;;5019509;28;87131;-50
2021/06/15 13:20:09;;;;;;;;;;;15.70;73.20;;;;;;5019720;28;89860;-52
2021/06/15 13:22:42;;;;;;;;;;;15.70;73.30;;;;;;5018968;28;88125;-51
2021/06/15 13:25:12;;;;;;;;;;;15.70;73.20;;;;;;5016786;28;90892;-52
2021/06/15 13:27:43;;;;;;;;;;;15.80;73.30;;;;;;5022089;28;88202;-53
2021/06/15 13:30:08;;;;;;;;;;;15.80;73.20;;;;;;5020405;28;87236;-51
2021/06/15 13:32:34;;;;;;;;;;;15.80;73.10;;;;;;5021146;28;88181;-53
2021/06/15 13:35:03;;;;;;;;;;;15.80;73.30;;;;;;5019962;28;87217;-50
2021/06/15 13:37:29;;;;;;;;;;;15.80;73.20;;;;;;5019559;28;88665;-52
2021/06/15 13:39:55;;;;;;;;;;;15.80;73.20;;;;;;5019130;28;87725;-51
2021/06/15 13:42:28;;;;;;;;;;;15.80;73.10;;;;;;5019176;28;87271;-52
2021/06/15 13:45:01;;;;;;;;;;;15.80;73.00;;;;;;5016994;28;88552;-51
2021/06/15 13:47:26;;;;;;;;;;;15.90;73.20;;;;;;5018588;28;89140;-51
2021/06/15 13:49:52;;;;;;;;;;;15.90;73.20;;;;;;5019382;28;88184;-52
2021/06/15 13:52:17;;;;;;;;;;;15.90;73.30;;;;;;5017109;28;88194;-51
2021/06/15 13:54:43;;;;;;;;;;;15.90;73.00;;;;;;5015885;28;87189;-51
2021/06/15 13:57:08;;;;;;;;;;;15.90;72.90;;;;;;5016358;28;89016;-51
2021/06/15 13:59:34;;;;;;;;;;;15.90;73.00;;;;;;5017361;28;88614;-55
2021/06/15 14:01:59;;;;;;;;;;;15.90;72.90;;;;;;5019875;28;89105;-51
2021/06/15 14:04:25;;;;;;;;;;;15.90;73.10;;;;;;5018179;28;88918;-53
2021/06/15 14:06:50;;;;;;;;;;;15.90;73.20;;;;;;5016187;28;89327;-51
2021/06/15 14:09:16;;;;;;;;;;;15.90;73.10;;;;;;5017812;28;87227;-51
2021/06/15 14:11:41;;;;;;;;;;;15.90;73.00;;;;;;5021161;28;88155;-52
2021/06/15 14:14:07;;;;;;;;;;;15.90;73.10;;;;;;5020193;28;87199;-52
2021/06/15 14:16:32;;;;;;;;;;;15.90;73.20;;;;;;5018805;28;89452;-51
2021/06/15 14:18:58;;;;;;;;;;;15.90;73.10;;;;;;5015724;28;87702;-53
2021/06/15 14:21:23;;;;;;;;;;;16.00;73.20;;;;;;5017282;28;87187;-51
2021/06/15 14:23:49;;;;;;;;;;;15.90;73.00;;;;;;5017850;28;87196;-52